< < Back
Terminal Aerodrome Forecast


Current Version              Previous Versions:   1  2  3  4  5  6  7  8  9  

Terminal Aerodrome Forecast

584
FTUS44 KMRX 281502 AAA
TAFTYS
TAF AMD
KTYS 281502Z 2815/2912 28010KT P6SM SCT020
     FM281600 29012G20KT P6SM SCT050
     FM290000 32006KT P6SM SCT250=



Latest METAR

942
SAUS80 KWBC 290400 RRB
MTRTYS
METAR KTYS 290353Z 36004KT 10SM FEW045 BKN090 21/15 A3000 RMK AO2 SLP149
T02060150


USA.gov is the U.S. government's official web portal to all federal, state and local government web resources and services.